Time;durP1;ratioP1;P1;durP2;ratioP2;P2;SDS_P1;SDS_P2;PMS_P1;PMS_P2;Temp;Humidity;BMP_temperature;BMP_pressure;BME280_temperature;BME280_humidity;BME280_pressure;Samples;Min_cycle;Max_cycle;Signal;HPM_P1;HPM_P2
2020/12/28 01:06:55;;;;;;;102.78;43.17;;;27.20;82.10;;;;;;6082296;23;20014;-90
2020/12/28 01:09:57;;;;;;;50.92;22.05;;;27.20;83.60;;;;;;6145249;23;19998;-90
2020/12/28 01:13:14;;;;;;;54.78;23.83;;;27.10;82.30;;;;;;6144474;23;20041;-91
2020/12/28 01:16:30;;;;;;;14.73;5.45;;;27.10;82.40;;;;;;6086071;23;19999;-96
2020/12/28 01:20:00;;;;;;;8.32;5.20;;;27.10;83.50;;;;;;6055687;23;20003;-93
2020/12/28 01:23:07;;;;;;;;;;;;;;;;;;;;;
2020/12/28 02:41:35;;;;;;;;;;;;;;;;;;;;;
2020/12/28 02:44:49;;;;;;;;;;;;;;;;;;;;;
2020/12/28 02:48:17;;;;;;;;;;;;;;;;;;;;;
2020/12/28 02:58:16;;;;;;;;;;;;;;;;;;;;;
2020/12/28 03:31:33;;;;;;;2.17;1.98;;;26.20;86.60;;;;;;6052886;23;20372;-92
2020/12/28 03:41:37;;;;;;;6.60;3.40;;;26.20;86.60;;;;;;6136634;23;20022;-92
2020/12/28 03:44:58;;;;;;;10.80;8.05;;;26.20;86.90;;;;;;6120991;23;20016;-90
2020/12/28 03:47:31;;;;;;;5.45;3.60;;;26.20;86.60;;;;;;6058593;23;20006;-91
2020/12/28 04:02:43;;;;;;;8.57;4.22;;;26.10;86.80;;;;;;6098319;23;20029;-89
2020/12/28 04:09:22;;;;;;;4.93;2.97;;;26.10;86.60;;;;;;6118711;23;20009;-92
2020/12/28 04:12:56;;;;;;;;;;;;;;;;;;;;;
2020/12/28 04:15:49;;;;;;;5.82;3.22;;;26.00;87.10;;;;;;5945456;24;20028;-91
2020/12/28 04:18:32;;;;;;;3.70;2.70;;;26.10;86.20;;;;;;5973175;24;20016;-93
2020/12/28 04:25:08;;;;;;;3.42;2.40;;;26.20;85.80;;;;;;6067181;23;20019;-95
2020/12/28 04:27:57;;;;;;;3.30;2.50;;;26.20;85.30;;;;;;6096915;23;20026;-93
2020/12/28 04:30:40;;;;;;;3.85;2.58;;;26.20;85.40;;;;;;6028362;23;20067;-92
2020/12/28 04:33:49;;;;;;;4.15;2.30;;;26.20;85.50;;;;;;6046226;23;20059;-92
2020/12/28 04:36:26;;;;;;;3.28;2.40;;;26.10;85.60;;;;;;6028622;23;20055;-91
2020/12/28 04:39:05;;;;;;;3.85;2.70;;;26.20;85.50;;;;;;6066945;23;20029;-90
2020/12/28 04:41:35;;;;;;;5.07;2.67;;;26.10;86.00;;;;;;6086497;23;20014;-91
2020/12/28 04:44:04;;;;;;;5.50;2.70;;;26.10;85.10;;;;;;6086506;23;20006;-93
2020/12/28 04:46:51;;;;;;;5.20;3.38;;;26.20;84.90;;;;;;6084116;23;20011;-92
2020/12/28 04:49:19;;;;;;;6.43;3.50;;;26.10;86.30;;;;;;6083802;23;19999;-92
2020/12/28 04:51:51;;;;;;;3.70;2.53;;;26.10;86.00;;;;;;6081774;23;20007;-92
2020/12/28 04:54:19;;;;;;;;;;;25.90;87.20;;;;;;6081198;23;20292;-94
2020/12/28 04:56:46;;;;;;;5.20;2.50;;;25.80;88.10;;;;;;6082460;23;19945;-92
2020/12/28 04:59:12;;;;;;;4.13;2.55;;;25.70;89.00;;;;;;6055849;23;20009;-93
2020/12/28 05:01:52;;;;;;;14.90;5.90;;;25.70;89.50;;;;;;6056518;23;20011;-95
2020/12/28 05:05:01;;;;;;;10.43;4.80;;;25.70;90.10;;;;;;6084467;23;20001;-93
2020/12/28 05:07:53;;;;;;;5.18;2.88;;;25.60;90.20;;;;;;5996062;24;20037;-93
2020/12/28 05:10:20;;;;;;;;;;;25.40;90.20;;;;;;5994826;24;20012;-93
2020/12/28 05:12:49;;;;;;;3.25;2.22;;;25.40;90.40;;;;;;5995477;24;19922;-92
2020/12/28 05:15:16;;;;;;;2.70;2.40;;;25.40;90.40;;;;;;5971572;24;20011;-92
2020/12/28 05:17:51;;;;;;;4.63;2.58;;;25.30;90.50;;;;;;5994667;24;20065;-93
2020/12/28 05:20:25;;;;;;;5.95;3.10;;;25.30;90.50;;;;;;5951400;24;20000;-91
2020/12/28 05:22:54;;;;;;;6.85;2.70;;;25.30;90.70;;;;;;5994484;24;20005;-94
2020/12/28 05:25:23;;;;;;;4.10;2.65;;;25.30;90.50;;;;;;5994235;24;20012;-91
2020/12/28 05:27:53;;;;;;;3.88;2.58;;;25.20;90.60;;;;;;6010303;23;20031;-94
2020/12/28 05:30:21;;;;;;;4.82;2.70;;;25.20;90.80;;;;;;6023912;23;20003;-96
2020/12/28 05:32:50;;;;;;;4.18;2.92;;;25.10;91.10;;;;;;6021780;23;20008;-92
2020/12/28 05:35:22;;;;;;;6.68;2.83;;;25.10;91.10;;;;;;5976598;23;20291;-94
2020/12/28 05:37:51;;;;;;;3.25;2.47;;;25.10;91.20;;;;;;6028351;23;20032;-93
2020/12/28 05:40:19;;;;;;;3.88;2.53;;;25.10;91.20;;;;;;6081224;23;20011;-93
2020/12/28 05:42:51;;;;;;;4.18;2.45;;;25.00;91.20;;;;;;6081127;23;20006;-92
2020/12/28 05:45:18;;;;;;;4.22;2.67;;;25.00;91.20;;;;;;6079901;23;20039;-94
2020/12/28 05:47:52;;;;;;;4.70;2.60;;;25.00;91.40;;;;;;6082529;23;20007;-94
2020/12/28 05:50:26;;;;;;;3.75;2.58;;;25.00;91.30;;;;;;6079280;23;20006;-94
2020/12/28 05:52:58;;;;;;;6.93;3.88;;;24.90;91.60;;;;;;6102715;23;20262;-93
2020/12/28 05:55:31;;;;;;;6.70;4.18;;;24.80;91.80;;;;;;6079572;23;20037;-93
2020/12/28 05:58:01;;;;;;;7.07;4.22;;;24.90;91.60;;;;;;6079869;23;20277;-94
2020/12/28 06:00:27;;;;;;;7.88;4.32;;;24.90;91.80;;;;;;6079367;23;20005;-94
2020/12/28 06:02:54;;;;;;;6.72;3.88;;;24.90;91.70;;;;;;6079839;23;20058;-93
2020/12/28 06:05:28;;;;;;;5.90;2.90;;;24.90;91.70;;;;;;6081211;23;20002;-93
2020/12/28 06:11:37;;;;;;;9.02;3.25;;;24.90;91.50;;;;;;6084555;23;20006;-96
2020/12/28 06:14:18;;;;;;;3.90;2.58;;;24.90;91.40;;;;;;6077995;23;20007;-93
2020/12/28 06:16:46;;;;;;;4.82;2.58;;;24.90;91.60;;;;;;6078395;23;20215;-93
2020/12/28 06:19:25;;;;;;;4.50;2.50;;;24.80;91.70;;;;;;6087091;23;20027;-92
2020/12/28 06:22:02;;;;;;;3.60;2.53;;;24.80;91.80;;;;;;6089830;23;19999;-90
2020/12/28 06:24:34;;;;;;;4.15;2.58;;;24.80;91.80;;;;;;6089826;23;20018;-90
2020/12/28 06:27:07;;;;;;;6.40;2.53;;;24.80;91.70;;;;;;6111622;23;20010;-90
2020/12/28 06:29:37;;;;;;;3.17;2.50;;;24.80;91.60;;;;;;6091232;23;20002;-88
2020/12/28 06:32:12;;;;;;;4.97;2.67;;;24.80;91.50;;;;;;6117778;23;20007;-90
2020/12/28 06:34:40;;;;;;;3.33;2.60;;;24.80;91.30;;;;;;6093762;23;20025;-90
2020/12/28 06:37:08;;;;;;;3.92;2.60;;;24.80;91.20;;;;;;6094309;23;20070;-89
2020/12/28 06:39:37;;;;;;;7.80;3.15;;;24.80;91.20;;;;;;6083877;23;20011;-92
2020/12/28 06:42:16;;;;;;;4.68;2.50;;;24.90;91.20;;;;;;6080751;23;20071;-93
2020/12/28 06:44:45;;;;;;;3.38;2.30;;;24.90;91.00;;;;;;6083071;23;20031;-95
2020/12/28 06:47:21;;;;;;;3.72;2.33;;;24.90;90.90;;;;;;6055497;23;20015;-92
2020/12/28 06:50:28;;;;;;;4.47;2.10;;;24.80;91.20;;;;;;6079912;23;20019;-93
2020/12/28 06:52:58;;;;;;;4.68;2.70;;;24.80;91.10;;;;;;6078115;23;20006;-93
2020/12/28 06:55:32;;;;;;;;;;;24.90;91.00;;;;;;6098753;23;20011;-91
2020/12/28 06:58:02;;;;;;;3.47;2.22;;;24.90;90.90;;;;;;6079753;23;19922;-93
2020/12/28 07:00:29;;;;;;;3.40;2.45;;;24.90;90.90;;;;;;6078687;23;19994;-94
2020/12/28 07:02:58;;;;;;;4.47;2.50;;;24.90;90.70;;;;;;6079603;23;20050;-93
2020/12/28 07:05:28;;;;;;;4.32;2.88;;;25.00;90.90;;;;;;6078133;23;19999;-93
2020/12/28 07:07:54;;;;;;;4.70;2.78;;;25.00;90.70;;;;;;6078248;23;20191;-92
2020/12/28 07:10:23;;;;;;;4.38;2.50;;;25.00;90.50;;;;;;6077312;23;20031;-91
2020/12/28 07:13:02;;;;;;;3.72;2.53;;;25.00;90.40;;;;;;6077907;23;20027;-91
2020/12/28 07:15:29;;;;;;;4.38;2.50;;;25.00;90.30;;;;;;6080552;23;20075;-92
2020/12/28 07:17:55;;;;;;;4.70;2.78;;;25.00;90.20;;;;;;6078610;23;20009;-92
2020/12/28 07:20:22;;;;;;;3.70;2.40;;;25.00;90.20;;;;;;6078738;23;20006;-94
2020/12/28 07:22:58;;;;;;;3.63;2.70;;;25.00;90.10;;;;;;6077452;23;20221;-92
2020/12/28 07:25:24;;;;;;;3.50;2.38;;;25.00;90.00;;;;;;6078048;23;20009;-92
2020/12/28 07:27:54;;;;;;;5.15;2.97;;;25.00;90.00;;;;;;6078710;23;20010;-94
2020/12/28 07:30:25;;;;;;;4.60;2.97;;;25.00;90.20;;;;;;6078523;23;19999;-94
2020/12/28 07:32:58;;;;;;;4.40;2.65;;;25.00;89.90;;;;;;6077702;23;20041;-93
2020/12/28 07:35:28;;;;;;;3.92;2.78;;;25.00;89.80;;;;;;6079085;23;19998;-92
2020/12/28 07:37:55;;;;;;;4.45;2.60;;;25.00;89.40;;;;;;6074075;23;20306;-94
2020/12/28 07:40:27;;;;;;;3.60;2.90;;;25.00;89.70;;;;;;6053840;23;20078;-94
2020/12/28 07:43:07;;;;;;;3.47;2.67;;;24.90;89.40;;;;;;6079894;23;20010;-94
2020/12/28 07:45:38;;;;;;;4.82;2.72;;;25.00;89.40;;;;;;6078146;23;19999;-96
2020/12/28 07:48:09;;;;;;;4.20;2.67;;;25.10;89.40;;;;;;6100554;23;20011;-93
2020/12/28 07:50:37;;;;;;;3.85;3.05;;;25.00;89.40;;;;;;6077863;23;19995;-93
2020/12/28 07:53:17;;;;;;;3.33;2.83;;;25.00;89.10;;;;;;6078254;23;20090;-93
2020/12/28 07:56:07;;;;;;;4.18;2.67;;;25.10;89.10;;;;;;6079140;23;20003;-92
2020/12/28 07:58:58;;;;;;;3.55;2.70;;;25.10;89.10;;;;;;6077265;23;20318;-94
2020/12/28 08:01:37;;;;;;;3.55;2.80;;;25.00;89.80;;;;;;6078006;23;19999;-94
2020/12/28 08:04:06;;;;;;;3.88;2.55;;;25.10;89.00;;;;;;6078202;23;20021;-93
2020/12/28 08:06:33;;;;;;;6.35;2.80;;;25.00;88.70;;;;;;6078288;23;20006;-94
2020/12/28 08:09:04;;;;;;;3.88;2.40;;;25.10;88.80;;;;;;6077032;23;20291;-95
2020/12/28 08:11:33;;;;;;;2.90;2.30;;;25.00;88.60;;;;;;6077953;23;20074;-94
2020/12/28 08:14:08;;;;;;;3.38;2.78;;;25.00;88.30;;;;;;6078228;23;19999;-93
2020/12/28 08:16:39;;;;;;;4.10;2.60;;;25.10;88.40;;;;;;6078266;23;20006;-96
2020/12/28 08:19:07;;;;;;;3.63;2.27;;;25.10;88.10;;;;;;6078377;23;20187;-95
2020/12/28 08:21:41;;;;;;;5.72;2.20;;;25.00;87.80;;;;;;6077686;23;20274;-93
2020/12/28 08:24:21;;;;;;;2.95;2.45;;;25.00;87.90;;;;;;6077543;23;20054;-94
2020/12/28 08:26:50;;;;;;;5.85;2.50;;;25.10;87.90;;;;;;6079569;23;20031;-95
2020/12/28 08:29:20;;;;;;;3.58;2.58;;;25.10;87.10;;;;;;6077814;23;20017;-93
2020/12/28 08:31:49;;;;;;;3.97;2.20;;;25.10;87.20;;;;;;6079202;23;20007;-95
2020/12/28 08:34:34;;;;;;;2.70;2.28;;;25.10;87.20;;;;;;6101234;23;20199;-94
2020/12/28 08:37:01;;;;;;;3.50;2.30;;;25.20;87.30;;;;;;6080002;23;20295;-93
2020/12/28 08:39:28;;;;;;;2.85;2.30;;;25.10;87.10;;;;;;6078720;23;20031;-93
2020/12/28 08:42:03;;;;;;;3.63;2.17;;;25.10;87.50;;;;;;6077783;23;20002;-94
2020/12/28 08:44:34;;;;;;;4.10;2.42;;;25.10;87.00;;;;;;6075824;23;20030;-94
2020/12/28 08:47:08;;;;;;;2.78;2.30;;;25.10;86.80;;;;;;6078365;23;20013;-94
2020/12/28 08:49:37;;;;;;;3.85;2.40;;;25.10;86.80;;;;;;6080101;23;20030;-94
2020/12/28 08:52:14;;;;;;;5.28;2.55;;;25.20;86.70;;;;;;6077902;23;20007;-93
2020/12/28 08:54:42;;;;;;;3.30;2.50;;;25.10;86.20;;;;;;6078060;23;20003;-94
2020/12/28 08:57:28;;;;;;;5.30;2.33;;;25.10;86.80;;;;;;6078441;23;20010;-96
2020/12/28 08:59:56;;;;;;;2.72;2.17;;;25.00;86.30;;;;;;6077242;23;19999;-95
2020/12/28 09:02:24;;;;;;;5.40;2.45;;;25.00;86.80;;;;;;6076800;23;20031;-95
2020/12/28 09:04:54;;;;;;;4.63;2.47;;;25.00;86.60;;;;;;6079311;23;20058;-94
2020/12/28 09:07:22;;;;;;;2.92;2.08;;;25.00;86.40;;;;;;6077242;23;20007;-95
2020/12/28 09:09:49;;;;;;;4.88;2.20;;;25.00;86.50;;;;;;6078123;23;20006;-95
2020/12/28 09:12:16;;;;;;;3.85;2.42;;;24.90;86.30;;;;;;6077890;23;20003;-94
2020/12/28 09:14:48;;;;;;;6.85;2.40;;;24.90;86.00;;;;;;6079024;23;19999;-94
2020/12/28 09:17:19;;;;;;;3.80;2.75;;;24.90;86.40;;;;;;6082959;23;20003;-94
2020/12/28 09:19:54;;;;;;;2.85;2.38;;;25.00;86.10;;;;;;6034397;23;19999;-94
2020/12/28 09:22:21;;;;;;;2.97;2.40;;;25.00;86.50;;;;;;6082236;23;20003;-94
2020/12/28 09:24:49;;;;;;;4.13;2.50;;;24.90;86.30;;;;;;6083213;23;20055;-93
2020/12/28 09:27:17;;;;;;;3.30;2.47;;;24.80;86.40;;;;;;6081607;23;20033;-93
2020/12/28 09:29:47;;;;;;;3.03;2.47;;;24.80;86.30;;;;;;6083705;23;19995;-95
2020/12/28 09:32:13;;;;;;;4.38;3.00;;;24.80;87.10;;;;;;6079166;23;20007;-93
2020/12/28 09:34:43;;;;;;;3.28;2.60;;;24.80;87.90;;;;;;6103626;23;20107;-93
2020/12/28 09:37:24;;;;;;;3.95;2.75;;;24.70;88.10;;;;;;6087837;23;20014;-93
2020/12/28 09:40:20;;;;;;;3.55;2.45;;;24.70;89.10;;;;;;6078901;23;20010;-93
2020/12/28 09:42:48;;;;;;;4.57;2.58;;;24.60;89.90;;;;;;6079381;23;20015;-94
2020/12/28 09:45:36;;;;;;;3.33;2.53;;;24.60;90.00;;;;;;6080809;23;20022;-95
2020/12/28 09:48:09;;;;;;;5.25;2.85;;;24.50;90.20;;;;;;6060160;23;20155;-94
2020/12/28 09:50:43;;;;;;;9.23;3.00;;;24.50;90.40;;;;;;6082415;23;20005;-93
2020/12/28 09:53:10;;;;;;;4.32;2.63;;;24.40;90.50;;;;;;6080320;23;20007;-94
2020/12/28 09:55:41;;;;;;;4.85;3.38;;;24.30;90.60;;;;;;6084215;23;20007;-92
2020/12/28 09:58:13;;;;;;;6.35;3.10;;;24.30;90.70;;;;;;6083144;23;19999;-93
2020/12/28 10:01:09;;;;;;;6.72;3.05;;;24.30;90.70;;;;;;6083380;23;19999;-94
2020/12/28 10:04:05;;;;;;;3.78;3.00;;;24.20;90.70;;;;;;6079401;23;20011;-94
2020/12/28 10:10:19;;;;;;;3.78;3.05;;;24.10;90.80;;;;;;6084410;23;20023;-93
2020/12/28 10:13:00;;;;;;;4.82;3.13;;;24.10;91.00;;;;;;6083371;23;19998;-92
2020/12/28 10:15:32;;;;;;;6.07;3.53;;;24.10;90.60;;;;;;6082725;23;20022;-93
2020/12/28 10:18:30;;;;;;;6.43;3.20;;;24.20;90.50;;;;;;6089113;23;20026;-95
2020/12/28 10:21:02;;;;;;;6.88;2.95;;;24.20;90.50;;;;;;6084708;23;20022;-90
2020/12/28 10:23:40;;;;;;;6.13;3.10;;;24.20;90.20;;;;;;6086880;23;20006;-90
2020/12/28 10:26:13;;;;;;;5.20;3.38;;;24.30;90.40;;;;;;6066918;23;20291;-91
2020/12/28 10:28:44;;;;;;;4.38;2.88;;;24.30;90.30;;;;;;6065716;23;20177;-92
2020/12/28 10:31:18;;;;;;;7.10;3.47;;;24.30;90.30;;;;;;6090588;23;20075;-92
2020/12/28 10:34:21;;;;;;;3.70;3.10;;;24.30;90.30;;;;;;6035530;23;20006;-95
2020/12/28 10:36:47;;;;;;;;;;;24.30;90.30;;;;;;6064540;23;20003;-95
2020/12/28 10:39:14;;;;;;;6.10;3.25;;;24.30;90.20;;;;;;6057008;23;19948;-94
2020/12/28 10:41:46;;;;;;;4.97;2.65;;;24.20;90.50;;;;;;6055524;23;19999;-93
2020/12/28 10:44:14;;;;;;;6.78;3.30;;;24.20;90.70;;;;;;6057130;23;20284;-93
2020/12/28 10:46:42;;;;;;;6.32;3.22;;;24.10;90.40;;;;;;6059732;23;20006;-93
2020/12/28 10:49:27;;;;;;;5.30;3.78;;;24.10;90.40;;;;;;6084854;23;20002;-94
2020/12/28 10:52:23;;;;;;;5.85;3.33;;;24.20;90.30;;;;;;6033194;23;20003;-91
2020/12/28 10:54:50;;;;;;;7.93;3.60;;;24.20;90.30;;;;;;6051361;23;20003;-94
2020/12/28 10:57:21;;;;;;;4.80;3.00;;;24.20;90.00;;;;;;6056914;23;19999;-93
2020/12/28 10:59:47;;;;;;;6.88;3.08;;;24.20;90.00;;;;;;6056060;23;20002;-93
2020/12/28 11:02:14;;;;;;;8.15;3.28;;;24.20;90.00;;;;;;6058012;23;20077;-95
2020/12/28 11:04:43;;;;;;;8.38;3.40;;;24.20;89.80;;;;;;6056646;23;20007;-94
2020/12/28 11:07:10;;;;;;;5.32;3.22;;;24.20;90.00;;;;;;6032542;23;20002;-92
2020/12/28 11:09:38;;;;;;;9.85;3.25;;;24.20;90.00;;;;;;6059349;23;20002;-88
2020/12/28 11:12:06;;;;;;;5.15;2.92;;;24.20;89.40;;;;;;6082589;23;20058;-90
2020/12/28 11:14:33;;;;;;;7.78;3.63;;;24.20;89.60;;;;;;6058455;23;20003;-92
2020/12/28 11:17:05;;;;;;;6.15;3.35;;;24.20;90.20;;;;;;6086204;23;20315;-94
2020/12/28 11:19:33;;;;;;;6.80;4.15;;;24.30;89.50;;;;;;6060773;23;19998;-91
2020/12/28 11:22:05;;;;;;;6.53;3.60;;;24.30;88.90;;;;;;6059200;23;20011;-93
2020/12/28 11:24:48;;;;;;;6.97;4.50;;;24.40;89.00;;;;;;6058477;23;20007;-90
2020/12/28 11:27:32;;;;;;;10.88;4.20;;;24.60;88.70;;;;;;6055175;23;20016;-89
2020/12/28 11:29:59;;;;;;;7.00;5.28;;;24.60;88.50;;;;;;6035052;23;20002;-92
2020/12/28 11:32:37;;;;;;;7.20;5.50;;;24.80;87.40;;;;;;6028046;23;20077;-87
2020/12/28 11:35:05;;;;;;;7.05;4.32;;;24.90;87.40;;;;;;6030124;23;20003;-92
2020/12/28 11:37:35;;;;;;;5.90;3.45;;;24.90;87.00;;;;;;6056949;23;20357;-88
2020/12/28 11:40:05;;;;;;;4.57;2.92;;;25.00;86.20;;;;;;6055784;23;19995;-93
2020/12/28 11:42:36;;;;;;;6.57;4.13;;;25.10;86.20;;;;;;6032232;23;20018;-89
2020/12/28 11:45:09;;;;;;;9.07;4.05;;;25.20;84.70;;;;;;6055860;23;19999;-93
2020/12/28 11:47:41;;;;;;;6.88;3.97;;;25.30;84.10;;;;;;6055655;23;20072;-94
2020/12/28 11:50:09;;;;;;;9.07;3.28;;;25.60;84.00;;;;;;6029331;23;20006;-96
2020/12/28 11:53:05;;;;;;;4.97;2.83;;;25.80;84.00;;;;;;6029419;23;20014;-92
2020/12/28 11:56:11;;;;;;;;;;;;;;;;;;;;;
2020/12/28 11:59:14;;;;;;;6.40;2.85;;;26.20;81.10;;;;;;6024311;23;20038;-93
2020/12/28 12:02:17;;;;;;;5.57;2.60;;;26.50;81.20;;;;;;5985633;23;20026;-93
2020/12/28 12:04:49;;;;;;;4.50;1.98;;;26.70;80.90;;;;;;6051359;23;19999;-91
2020/12/28 12:07:22;;;;;;;5.78;2.15;;;26.80;79.60;;;;;;6051182;23;20003;-91
2020/12/28 12:09:52;;;;;;;4.68;2.30;;;27.00;78.40;;;;;;6051838;23;19999;-91
2020/12/28 12:12:20;;;;;;;2.90;1.95;;;27.10;79.40;;;;;;6027401;23;20058;-91
2020/12/28 12:14:50;;;;;;;3.85;2.40;;;27.10;79.20;;;;;;6052770;23;20003;-91
2020/12/28 12:17:21;;;;;;;6.22;2.83;;;27.20;79.60;;;;;;6053947;23;19999;-93
2020/12/28 12:19:49;;;;;;;9.52;3.20;;;27.10;80.20;;;;;;6055595;23;20000;-96
2020/12/28 12:22:15;;;;;;;5.18;2.75;;;27.10;80.90;;;;;;6049140;23;20011;-89
2020/12/28 12:24:42;;;;;;;7.15;2.17;;;27.20;80.10;;;;;;6051048;23;20003;-91
2020/12/28 12:27:12;;;;;;;2.83;1.70;;;27.30;76.50;;;;;;6052023;23;19995;-92
2020/12/28 12:29:38;;;;;;;2.80;1.60;;;27.40;73.90;;;;;;6051433;23;20018;-88
2020/12/28 12:32:05;;;;;;;4.05;2.10;;;27.60;73.70;;;;;;6050753;23;20000;-91
2020/12/28 12:34:32;;;;;;;6.75;3.05;;;27.90;76.10;;;;;;6049874;23;20347;-89
2020/12/28 12:36:59;;;;;;;6.03;3.20;;;28.20;76.10;;;;;;6049724;23;20004;-89
2020/12/28 12:39:25;;;;;;;5.30;2.72;;;28.30;76.90;;;;;;6051645;23;20001;-88
2020/12/28 12:41:52;;;;;;;5.93;2.90;;;28.60;75.80;;;;;;6050434;23;20027;-89
2020/12/28 12:44:18;;;;;;;4.00;2.92;;;28.70;75.70;;;;;;6051734;23;20024;-91
2020/12/28 12:46:47;;;;;;;10.93;4.20;;;28.60;75.70;;;;;;6050839;23;20010;-90
2020/12/28 12:49:13;;;;;;;12.65;3.88;;;28.30;78.60;;;;;;6051304;23;20050;-90
2020/12/28 12:51:40;;;;;;;12.00;3.67;;;28.20;79.20;;;;;;6049711;23;20242;-91
2020/12/28 12:54:07;;;;;;;9.82;3.00;;;28.20;78.80;;;;;;6051872;23;20000;-92
2020/12/28 12:56:46;;;;;;;5.85;3.45;;;28.20;78.80;;;;;;6050074;23;20059;-91
2020/12/28 12:59:12;;;;;;;6.85;3.90;;;28.20;77.90;;;;;;6051208;23;19999;-90
2020/12/28 13:01:42;;;;;;;7.68;3.42;;;27.80;80.20;;;;;;6050709;23;20000;-90
2020/12/28 13:04:30;;;;;;;7.10;3.40;;;27.80;80.90;;;;;;6053546;23;20007;-90
2020/12/28 13:06:55;;;;;;;10.70;6.13;;;27.90;80.80;;;;;;6053024;23;20015;-91
2020/12/28 13:09:21;;;;;;;7.13;3.10;;;28.00;80.60;;;;;;6053970;23;20003;-92
2020/12/28 13:11:48;;;;;;;8.40;3.78;;;28.00;79.60;;;;;;6051505;23;20014;-91
2020/12/28 13:14:29;;;;;;;13.50;3.42;;;27.90;80.20;;;;;;6053268;23;20007;-92
2020/12/28 13:16:55;;;;;;;5.53;4.03;;;27.60;81.00;;;;;;6028086;23;20066;-90
2020/12/28 13:19:23;;;;;;;20.80;10.90;;;27.50;82.10;;;;;;6051205;23;20006;-91
2020/12/28 13:21:50;;;;;;;7.35;3.70;;;27.50;83.00;;;;;;6028178;23;20022;-90
2020/12/28 13:24:17;;;;;;;8.85;3.08;;;27.60;82.00;;;;;;6051244;23;20015;-90
2020/12/28 13:26:50;;;;;;;15.25;4.97;;;27.50;81.60;;;;;;6053667;23;20003;-91
2020/12/28 13:29:18;;;;;;;8.32;3.80;;;27.60;82.10;;;;;;6030088;23;20008;-91
2020/12/28 13:31:58;;;;;;;11.73;5.25;;;27.70;81.90;;;;;;6054341;23;20000;-91
2020/12/28 13:34:25;;;;;;;14.63;4.35;;;27.50;83.40;;;;;;6054078;23;20059;-89
2020/12/28 13:36:55;;;;;;;26.60;4.30;;;27.70;82.70;;;;;;6056678;23;20006;-89
2020/12/28 13:39:29;;;;;;;16.55;4.03;;;27.60;84.00;;;;;;6056270;23;19995;-90
2020/12/28 13:42:02;;;;;;;18.92;4.25;;;27.80;83.60;;;;;;6056648;23;20026;-90
2020/12/28 13:44:31;;;;;;;9.10;3.53;;;28.00;81.10;;;;;;6054844;23;20067;-92
2020/12/28 13:46:59;;;;;;;11.70;3.03;;;28.10;80.60;;;;;;6032002;23;20007;-90
2020/12/28 13:49:26;;;;;;;10.88;3.72;;;28.00;81.80;;;;;;6054901;23;20014;-91
2020/12/28 13:51:58;;;;;;;12.25;3.40;;;28.00;81.40;;;;;;6026299;23;20003;-93
2020/12/28 13:54:28;;;;;;;9.13;3.20;;;28.10;81.10;;;;;;6025285;23;20067;-90
2020/12/28 13:56:56;;;;;;;8.50;2.65;;;27.80;81.70;;;;;;6022544;23;20000;-92
2020/12/28 13:59:24;;;;;;;9.18;3.53;;;27.80;81.70;;;;;;6024781;23;20304;-93
2020/12/28 14:04:48;;;;;;;7.13;3.33;;;27.60;80.90;;;;;;6021071;23;20015;-92
2020/12/28 14:07:20;;;;;;;6.30;2.70;;;27.40;79.10;;;;;;6023207;23;20028;-93
2020/12/28 14:09:47;;;;;;;4.20;3.13;;;27.30;80.90;;;;;;6024459;23;20007;-90
2020/12/28 14:12:19;;;;;;;32.53;9.32;;;27.30;81.60;;;;;;6024471;23;20200;-93
2020/12/28 14:14:47;;;;;;;28.88;5.68;;;27.60;82.40;;;;;;6000559;23;20296;-93
2020/12/28 14:17:15;;;;;;;14.50;3.45;;;27.60;82.50;;;;;;6023580;23;20007;-92
2020/12/28 14:19:44;;;;;;;124.30;15.55;;;27.80;81.30;;;;;;6036848;23;20003;-89
2020/12/28 14:25:25;;;;;;;29.65;5.85;;;27.60;80.20;;;;;;6085513;23;20034;-90
2020/12/28 14:27:53;;;;;;;21.02;4.25;;;27.80;81.40;;;;;;6084690;23;20002;-90
2020/12/28 14:30:19;;;;;;;15.82;2.75;;;27.90;81.70;;;;;;6011321;23;20007;-89
2020/12/28 14:32:49;;;;;;;11.50;3.10;;;28.00;80.50;;;;;;6059698;23;20007;-88
2020/12/28 14:35:15;;;;;;;5.82;2.67;;;28.00;80.80;;;;;;6059393;23;20003;-87
2020/12/28 14:37:45;;;;;;;5.72;2.65;;;28.00;81.10;;;;;;6058543;23;20018;-88
2020/12/28 14:40:17;;;;;;;7.32;2.88;;;28.10;80.80;;;;;;6060217;23;19999;-91
2020/12/28 14:42:44;;;;;;;9.52;4.28;;;28.20;81.80;;;;;;6059103;23;19995;-92
2020/12/28 14:45:10;;;;;;;25.45;12.07;;;28.20;80.00;;;;;;6057102;23;20014;-93
2020/12/28 14:47:37;;;;;;;23.75;10.65;;;28.10;79.60;;;;;;6058427;23;19999;-91
2020/12/28 14:50:05;;;;;;;39.42;16.40;;;28.30;80.60;;;;;;6056325;23;20014;-88
2020/12/28 14:52:36;;;;;;;14.88;8.90;;;28.40;78.60;;;;;;6055227;23;20063;-86
2020/12/28 14:55:07;;;;;;;22.67;8.32;;;28.50;78.30;;;;;;6080464;23;20062;-86
2020/12/28 14:57:35;;;;;;;30.60;11.70;;;28.60;78.10;;;;;;6052048;23;20023;-88
2020/12/28 15:00:10;;;;;;;21.77;9.00;;;29.20;77.70;;;;;;6058119;23;20054;-87
2020/12/28 15:03:07;;;;;;;13.13;5.85;;;30.10;75.10;;;;;;6056095;23;19999;-88
2020/12/28 15:05:43;;;;;;;6.65;3.53;;;30.90;72.80;;;;;;6056691;23;20005;-87
2020/12/28 15:08:10;;;;;;;3.53;2.55;;;31.30;71.30;;;;;;6055627;23;20017;-87
2020/12/28 15:10:42;;;;;;;8.38;3.25;;;31.20;68.70;;;;;;6081185;23;20021;-87
2020/12/28 15:13:09;;;;;;;6.45;3.13;;;31.30;70.10;;;;;;6057382;23;20010;-88
2020/12/28 15:15:39;;;;;;;7.10;3.03;;;31.50;71.10;;;;;;6082278;23;20009;-88
2020/12/28 15:18:09;;;;;;;8.02;3.08;;;31.60;70.50;;;;;;6082054;23;20023;-89
2020/12/28 15:20:36;;;;;;;6.70;2.80;;;32.10;69.60;;;;;;6061239;23;20007;-89
2020/12/28 15:23:02;;;;;;;5.05;3.03;;;31.90;66.50;;;;;;6063923;23;20003;-89
2020/12/28 15:25:32;;;;;;;4.20;2.35;;;31.40;68.70;;;;;;6061099;23;20006;-89
2020/12/28 15:28:00;;;;;;;3.83;1.75;;;31.20;64.50;;;;;;6087943;23;20006;-90
2020/12/28 15:30:28;;;;;;;4.32;2.40;;;32.40;64.30;;;;;;6061931;23;20009;-91
2020/12/28 15:32:59;;;;;;;5.55;2.33;;;32.50;60.90;;;;;;6070188;23;19998;-92
2020/12/28 15:35:28;;;;;;;29.73;4.50;;;34.00;62.00;;;;;;6071002;23;20054;-96
2020/12/28 15:37:57;;;;;;;16.55;2.92;;;34.00;59.70;;;;;;6070504;23;19995;-94
2020/12/28 15:40:24;;;;;;;43.88;4.80;;;34.40;59.50;;;;;;6047698;23;19995;-94
2020/12/28 15:42:50;;;;;;;4.97;1.40;;;34.50;57.70;;;;;;6069134;23;20046;-93
2020/12/28 15:45:21;;;;;;;2.83;1.35;;;34.40;59.20;;;;;;6094894;23;19999;-92
2020/12/28 15:47:54;;;;;;;54.50;5.40;;;33.70;61.40;;;;;;6047359;23;20014;-89
2020/12/28 15:50:23;;;;;;;47.05;6.18;;;33.90;59.60;;;;;;6068230;23;19998;-91
2020/12/28 15:52:50;;;;;;;76.03;10.63;;;33.40;59.30;;;;;;6081905;23;20058;-92
2020/12/28 15:55:16;;;;;;;77.68;9.50;;;33.20;60.60;;;;;;6056930;23;19999;-90
2020/12/28 15:57:43;;;;;;;6.47;2.30;;;32.40;62.40;;;;;;6056076;23;20002;-92
2020/12/28 16:00:33;;;;;;;78.13;8.15;;;32.20;63.90;;;;;;6060687;23;20002;-89
2020/12/28 16:03:00;;;;;;;26.25;4.00;;;31.80;66.20;;;;;;6081203;23;20239;-91
2020/12/28 16:05:26;;;;;;;17.80;2.70;;;32.10;66.40;;;;;;6057397;23;20055;-92
2020/12/28 16:08:04;;;;;;;5.68;2.20;;;32.30;63.10;;;;;;6082491;23;20042;-89
2020/12/28 16:10:33;;;;;;;8.13;2.00;;;32.90;62.20;;;;;;6083801;23;20060;-92
2020/12/28 16:13:02;;;;;;;6.53;1.98;;;33.30;62.90;;;;;;6056113;23;20359;-88
2020/12/28 16:15:29;;;;;;;50.55;7.78;;;33.90;59.70;;;;;;6055162;23;20007;-91
2020/12/28 16:17:56;;;;;;;60.42;6.88;;;32.90;59.90;;;;;;6057167;23;19995;-91
2020/12/28 16:20:24;;;;;;;28.52;3.40;;;32.40;61.90;;;;;;6057537;23;20019;-91
2020/12/28 16:22:51;;;;;;;38.17;5.68;;;32.00;65.50;;;;;;6055436;23;20275;-92
2020/12/28 16:25:25;;;;;;;33.28;5.13;;;31.60;63.50;;;;;;6058785;23;20006;-88
2020/12/28 16:31:43;;;;;;;66.93;6.80;;;31.20;67.30;;;;;;6002276;24;20019;-88
2020/12/28 16:34:13;;;;;;;11.45;1.90;;;31.20;65.90;;;;;;5954495;24;20038;-91
2020/12/28 16:36:41;;;;;;;2.40;1.38;;;31.00;65.80;;;;;;5997743;24;20051;-92
2020/12/28 16:39:11;;;;;;;5.50;1.52;;;31.60;63.50;;;;;;5998011;24;20016;-93
2020/12/28 16:42:22;;;;;;;38.47;5.10;;;32.30;63.60;;;;;;5999648;24;20000;-90
2020/12/28 16:44:50;;;;;;;69.80;8.38;;;33.10;59.30;;;;;;5914747;24;20027;-91
2020/12/28 16:47:21;;;;;;;4.20;1.30;;;32.80;59.60;;;;;;5973949;24;20014;-90
2020/12/28 16:49:51;;;;;;;8.18;1.40;;;32.10;59.40;;;;;;5950859;24;20004;-92
2020/12/28 16:52:21;;;;;;;37.67;4.85;;;32.20;62.60;;;;;;5975718;24;20008;-91
2020/12/28 16:54:53;;;;;;;11.55;1.63;;;31.90;61.80;;;;;;5999039;24;20004;-92
2020/12/28 16:57:44;;;;;;;16.92;2.88;;;31.30;62.20;;;;;;5998883;24;19996;-90
2020/12/28 17:00:23;;;;;;;3.40;1.45;;;31.60;63.60;;;;;;5976697;24;19996;-90
2020/12/28 17:02:50;;;;;;;14.50;2.25;;;32.70;61.40;;;;;;5975531;24;20067;-91
2020/12/28 17:05:16;;;;;;;6.75;1.40;;;33.50;61.30;;;;;;5995920;24;20011;-91
2020/12/28 17:07:43;;;;;;;4.57;1.40;;;34.00;59.40;;;;;;5972334;24;20100;-92
2020/12/28 17:10:14;;;;;;;10.20;1.50;;;33.90;58.40;;;;;;5997522;24;19999;-91
2020/12/28 17:12:42;;;;;;;4.90;1.48;;;33.00;61.30;;;;;;5995529;24;20000;-90